Weather at Walvis Bay Airport

Public forecast

Using degrees Celsius for public forecast. Weather courtesy of forecast.io.

Current aviation weather report (METAR) for Walvis Bay Airport

2024/05/23 06:00 (retrieved 48 minutes ago)

FYWB 230600Z 09016KT CAVOK 23/M00 Q1014

Aviation forecast (TAF) for Walvis Bay Airport

2024/05/23 06:29 (retrieved 19 minutes ago)

TAF FYWB 230400Z 2306/2406 10012KT CAVOK BECMG 2310/2312 24005KT